sensor_id;sensor_type;location;lat;lon;timestamp;pressure;altitude;pressure_sealevel;temperature;humidity
44659;BME280;30378;50.186;8.644;2022-12-07T00:01:20;100476.66;;;2.75;100.00
44659;BME280;30378;50.186;8.644;2022-12-07T00:03:48;100469.47;;;2.81;100.00
44659;BME280;30378;50.186;8.644;2022-12-07T00:06:17;100447.81;;;2.86;100.00
44659;BME280;30378;50.186;8.644;2022-12-07T00:08:45;100448.50;;;2.93;100.00
44659;BME280;30378;50.186;8.644;2022-12-07T00:11:22;100443.59;;;2.90;100.00
44659;BME280;30378;50.186;8.644;2022-12-07T00:13:58;100444.88;;;2.88;100.00
44659;BME280;30378;50.186;8.644;2022-12-07T00:16:29;100443.25;;;2.87;100.00
44659;BME280;30378;50.186;8.644;2022-12-07T00:18:57;100438.75;;;2.92;100.00
44659;BME280;30378;50.186;8.644;2022-12-07T00:21:25;100429.28;;;2.95;100.00
44659;BME280;30378;50.186;8.644;2022-12-07T00:23:53;100419.22;;;2.95;100.00
44659;BME280;30378;50.186;8.644;2022-12-07T00:26:24;100422.75;;;2.96;100.00
44659;BME280;30378;50.186;8.644;2022-12-07T00:28:54;100411.78;;;3.03;100.00
44659;BME280;30378;50.186;8.644;2022-12-07T00:31:24;100408.06;;;3.09;100.00
44659;BME280;30378;50.186;8.644;2022-12-07T00:33:51;100409.13;;;3.08;100.00
44659;BME280;30378;50.186;8.644;2022-12-07T00:36:20;100400.50;;;3.11;100.00
44659;BME280;30378;50.186;8.644;2022-12-07T00:38:52;100400.56;;;2.99;100.00
44659;BME280;30378;50.186;8.644;2022-12-07T00:41:21;100392.44;;;2.99;100.00
44659;BME280;30378;50.186;8.644;2022-12-07T00:43:48;100404.16;;;2.88;100.00
44659;BME280;30378;50.186;8.644;2022-12-07T00:46:16;100403.34;;;2.87;100.00
44659;BME280;30378;50.186;8.644;2022-12-07T00:48:44;100386.81;;;2.89;100.00
44659;BME280;30378;50.186;8.644;2022-12-07T00:51:12;100391.91;;;2.85;100.00
44659;BME280;30378;50.186;8.644;2022-12-07T00:53:40;100398.97;;;2.86;100.00
44659;BME280;30378;50.186;8.644;2022-12-07T00:56:15;100397.69;;;2.89;100.00
44659;BME280;30378;50.186;8.644;2022-12-07T00:58:42;100402.88;;;2.90;100.00
44659;BME280;30378;50.186;8.644;2022-12-07T01:01:11;100392.78;;;3.03;100.00
44659;BME280;30378;50.186;8.644;2022-12-07T01:03:38;100397.69;;;2.89;100.00
44659;BME280;30378;50.186;8.644;2022-12-07T01:06:05;100387.75;;;2.94;100.00
44659;BME280;30378;50.186;8.644;2022-12-07T01:08:33;100382.03;;;2.96;100.00
44659;BME280;30378;50.186;8.644;2022-12-07T01:11:03;100378.19;;;2.92;100.00
44659;BME280;30378;50.186;8.644;2022-12-07T01:13:32;100380.66;;;2.93;100.00
44659;BME280;30378;50.186;8.644;2022-12-07T01:16:00;100368.97;;;2.93;100.00
44659;BME280;30378;50.186;8.644;2022-12-07T01:18:28;100369.31;;;2.96;100.00
44659;BME280;30378;50.186;8.644;2022-12-07T01:21:11;100373.25;;;2.89;100.00
44659;BME280;30378;50.186;8.644;2022-12-07T01:23:39;100363.22;;;2.89;100.00
44659;BME280;30378;50.186;8.644;2022-12-07T01:26:10;100367.94;;;3.11;100.00
44659;BME280;30378;50.186;8.644;2022-12-07T01:28:38;100367.13;;;3.10;100.00
44659;BME280;30378;50.186;8.644;2022-12-07T01:31:07;100383.13;;;3.12;100.00
44659;BME280;30378;50.186;8.644;2022-12-07T01:33:38;100373.66;;;2.97;100.00
44659;BME280;30378;50.186;8.644;2022-12-07T01:36:23;100377.47;;;2.96;100.00
44659;BME280;30378;50.186;8.644;2022-12-07T01:38:53;100383.38;;;2.93;100.00
44659;BME280;30378;50.186;8.644;2022-12-07T01:41:25;100388.22;;;2.91;100.00
44659;BME280;30378;50.186;8.644;2022-12-07T01:44:14;100377.59;;;2.90;100.00
44659;BME280;30378;50.186;8.644;2022-12-07T01:47:02;100382.97;;;3.02;100.00
44659;BME280;30378;50.186;8.644;2022-12-07T01:49:37;100380.88;;;2.92;100.00
44659;BME280;30378;50.186;8.644;2022-12-07T01:52:30;100373.00;;;2.90;100.00
44659;BME280;30378;50.186;8.644;2022-12-07T01:55:02;100375.13;;;2.88;100.00
44659;BME280;30378;50.186;8.644;2022-12-07T01:57:32;100374.47;;;2.81;100.00
44659;BME280;30378;50.186;8.644;2022-12-07T02:00:00;100377.00;;;2.71;100.00
44659;BME280;30378;50.186;8.644;2022-12-07T02:02:47;100376.72;;;2.72;100.00
44659;BME280;30378;50.186;8.644;2022-12-07T02:05:16;100372.72;;;2.75;100.00
44659;BME280;30378;50.186;8.644;2022-12-07T02:07:47;100370.03;;;2.75;100.00
44659;BME280;30378;50.186;8.644;2022-12-07T02:10:16;100362.94;;;2.74;100.00
44659;BME280;30378;50.186;8.644;2022-12-07T02:12:50;100355.28;;;2.71;100.00
44659;BME280;30378;50.186;8.644;2022-12-07T02:15:21;100352.41;;;2.77;100.00
44659;BME280;30378;50.186;8.644;2022-12-07T02:30:07;100345.09;;;2.78;100.00
44659;BME280;30378;50.186;8.644;2022-12-07T02:32:44;100340.16;;;2.75;100.00
44659;BME280;30378;50.186;8.644;2022-12-07T02:35:41;100345.78;;;2.56;100.00
44659;BME280;30378;50.186;8.644;2022-12-07T02:38:31;100344.72;;;2.57;100.00
44659;BME280;30378;50.186;8.644;2022-12-07T02:41:29;100344.84;;;2.63;100.00
44659;BME280;30378;50.186;8.644;2022-12-07T02:44:01;100343.06;;;2.56;100.00
44659;BME280;30378;50.186;8.644;2022-12-07T02:46:34;100347.25;;;2.47;100.00
44659;BME280;30378;50.186;8.644;2022-12-07T02:49:03;100353.66;;;2.41;100.00
44659;BME280;30378;50.186;8.644;2022-12-07T02:51:32;100346.31;;;2.42;100.00
44659;BME280;30378;50.186;8.644;2022-12-07T02:54:00;100349.69;;;2.49;100.00
44659;BME280;30378;50.186;8.644;2022-12-07T03:00:05;100332.66;;;2.65;100.00
44659;BME280;30378;50.186;8.644;2022-12-07T03:08:19;100333.75;;;2.81;100.00
44659;BME280;30378;50.186;8.644;2022-12-07T03:11:02;100337.63;;;2.85;100.00
44659;BME280;30378;50.186;8.644;2022-12-07T03:13:49;100325.63;;;2.81;100.00
44659;BME280;30378;50.186;8.644;2022-12-07T03:16:33;100329.25;;;2.87;100.00
44659;BME280;30378;50.186;8.644;2022-12-07T03:19:07;100330.97;;;2.93;100.00
44659;BME280;30378;50.186;8.644;2022-12-07T03:21:41;100324.72;;;2.92;100.00
44659;BME280;30378;50.186;8.644;2022-12-07T03:24:15;100332.03;;;2.92;100.00
44659;BME280;30378;50.186;8.644;2022-12-07T03:26:48;100330.06;;;2.87;100.00
44659;BME280;30378;50.186;8.644;2022-12-07T03:29:26;100322.91;;;2.81;100.00
44659;BME280;30378;50.186;8.644;2022-12-07T03:32:00;100327.00;;;2.84;100.00
44659;BME280;30378;50.186;8.644;2022-12-07T03:34:33;100332.69;;;2.82;100.00
44659;BME280;30378;50.186;8.644;2022-12-07T03:37:08;100335.31;;;2.77;100.00
44659;BME280;30378;50.186;8.644;2022-12-07T03:42:24;100330.22;;;2.81;100.00
44659;BME280;30378;50.186;8.644;2022-12-07T03:44:52;100316.38;;;2.82;100.00
44659;BME280;30378;50.186;8.644;2022-12-07T03:52:42;100310.59;;;2.90;100.00
44659;BME280;30378;50.186;8.644;2022-12-07T03:55:17;100318.22;;;2.93;100.00
44659;BME280;30378;50.186;8.644;2022-12-07T03:57:49;100313.03;;;2.92;100.00
44659;BME280;30378;50.186;8.644;2022-12-07T04:00:18;100312.22;;;2.91;100.00
44659;BME280;30378;50.186;8.644;2022-12-07T04:02:45;100311.97;;;2.93;100.00
44659;BME280;30378;50.186;8.644;2022-12-07T04:05:13;100309.59;;;2.96;100.00
44659;BME280;30378;50.186;8.644;2022-12-07T04:07:40;100311.75;;;2.94;100.00
44659;BME280;30378;50.186;8.644;2022-12-07T04:10:07;100318.22;;;2.93;100.00
44659;BME280;30378;50.186;8.644;2022-12-07T04:12:35;100320.47;;;2.96;100.00
44659;BME280;30378;50.186;8.644;2022-12-07T04:15:03;100313.69;;;2.99;100.00
44659;BME280;30378;50.186;8.644;2022-12-07T04:17:30;100311.91;;;3.05;100.00
44659;BME280;30378;50.186;8.644;2022-12-07T04:19:57;100311.09;;;3.04;100.00
44659;BME280;30378;50.186;8.644;2022-12-07T04:22:24;100315.66;;;3.04;100.00
44659;BME280;30378;50.186;8.644;2022-12-07T04:24:51;100315.44;;;3.05;100.00
44659;BME280;30378;50.186;8.644;2022-12-07T04:27:18;100319.38;;;3.14;100.00
44659;BME280;30378;50.186;8.644;2022-12-07T04:29:45;100323.41;;;3.12;100.00
44659;BME280;30378;50.186;8.644;2022-12-07T04:32:12;100318.03;;;3.00;100.00
44659;BME280;30378;50.186;8.644;2022-12-07T04:34:39;100313.69;;;2.99;100.00
44659;BME280;30378;50.186;8.644;2022-12-07T04:37:06;100323.34;;;3.07;100.00
44659;BME280;30378;50.186;8.644;2022-12-07T04:39:33;100325.94;;;3.02;100.00
44659;BME280;30378;50.186;8.644;2022-12-07T04:42:01;100320.53;;;3.02;100.00
44659;BME280;30378;50.186;8.644;2022-12-07T04:44:28;100312.13;;;3.03;100.00
44659;BME280;30378;50.186;8.644;2022-12-07T04:46:55;100315.59;;;2.98;100.00
44659;BME280;30378;50.186;8.644;2022-12-07T04:49:23;100321.03;;;2.98;100.00
44659;BME280;30378;50.186;8.644;2022-12-07T04:51:50;100312.63;;;3.00;100.00
44659;BME280;30378;50.186;8.644;2022-12-07T04:54:17;100310.66;;;2.95;100.00
44659;BME280;30378;50.186;8.644;2022-12-07T04:56:45;100308.69;;;2.91;100.00
44659;BME280;30378;50.186;8.644;2022-12-07T04:59:12;100302.44;;;2.90;100.00
44659;BME280;30378;50.186;8.644;2022-12-07T05:01:40;100299.13;;;2.88;100.00
44659;BME280;30378;50.186;8.644;2022-12-07T05:04:08;100306.69;;;2.86;100.00
44659;BME280;30378;50.186;8.644;2022-12-07T05:06:35;100302.44;;;2.90;100.00
44659;BME280;30378;50.186;8.644;2022-12-07T05:09:03;100303.03;;;2.92;100.00
44659;BME280;30378;50.186;8.644;2022-12-07T05:11:30;100309.03;;;2.94;100.00
44659;BME280;30378;50.186;8.644;2022-12-07T05:14:13;100309.03;;;2.94;100.00
44659;BME280;30378;50.186;8.644;2022-12-07T05:16:41;100307.38;;;2.93;100.00
44659;BME280;30378;50.186;8.644;2022-12-07T05:19:09;100316.25;;;2.89;100.00
44659;BME280;30378;50.186;8.644;2022-12-07T05:21:36;100314.69;;;2.93;100.00
44659;BME280;30378;50.186;8.644;2022-12-07T05:24:04;100320.47;;;2.96;100.00
44659;BME280;30378;50.186;8.644;2022-12-07T05:26:31;100321.84;;;2.99;100.00
44659;BME280;30378;50.186;8.644;2022-12-07T05:28:58;100317.47;;;2.98;100.00
44659;BME280;30378;50.186;8.644;2022-12-07T05:31:26;100309.66;;;3.02;100.00
44659;BME280;30378;50.186;8.644;2022-12-07T05:33:53;100322.19;;;3.03;100.00
44659;BME280;30378;50.186;8.644;2022-12-07T05:36:21;100312.13;;;3.03;100.00
44659;BME280;30378;50.186;8.644;2022-12-07T05:38:48;100311.38;;;3.08;100.00
44659;BME280;30378;50.186;8.644;2022-12-07T05:41:17;100309.81;;;3.12;100.00
44659;BME280;30378;50.186;8.644;2022-12-07T05:44:04;100311.97;;;3.10;100.00
44659;BME280;30378;50.186;8.644;2022-12-07T05:46:31;100315.25;;;3.12;100.00
44659;BME280;30378;50.186;8.644;2022-12-07T05:48:59;100311.81;;;3.16;100.00
44659;BME280;30378;50.186;8.644;2022-12-07T05:51:26;100305.56;;;3.16;100.00
44659;BME280;30378;50.186;8.644;2022-12-07T05:53:53;100306.28;;;3.11;100.00
44659;BME280;30378;50.186;8.644;2022-12-07T05:56:20;100306.53;;;3.10;100.00
44659;BME280;30378;50.186;8.644;2022-12-07T05:58:47;100299.47;;;3.09;100.00
44659;BME280;30378;50.186;8.644;2022-12-07T06:01:33;100305.66;;;3.04;100.00
44659;BME280;30378;50.186;8.644;2022-12-07T06:04:00;100297.34;;;3.11;100.00
44659;BME280;30378;50.186;8.644;2022-12-07T06:06:27;100309.66;;;3.02;100.00
44659;BME280;30378;50.186;8.644;2022-12-07T06:08:54;100305.91;;;3.03;100.00
44659;BME280;30378;50.186;8.644;2022-12-07T06:11:21;100309.31;;;2.98;100.00
44659;BME280;30378;50.186;8.644;2022-12-07T06:14:06;100302.75;;;2.94;100.00
44659;BME280;30378;50.186;8.644;2022-12-07T06:16:33;100299.78;;;2.95;100.00
44659;BME280;30378;50.186;8.644;2022-12-07T06:19:00;100311.41;;;2.91;100.00
44659;BME280;30378;50.186;8.644;2022-12-07T06:21:27;100308.59;;;2.86;100.00
44659;BME280;30378;50.186;8.644;2022-12-07T06:23:54;100308.00;;;2.84;100.00
44659;BME280;30378;50.186;8.644;2022-12-07T06:26:22;100303.91;;;2.81;100.00
44659;BME280;30378;50.186;8.644;2022-12-07T06:28:49;100307.44;;;2.82;100.00
44659;BME280;30378;50.186;8.644;2022-12-07T06:31:16;100311.13;;;2.75;100.00
44659;BME280;30378;50.186;8.644;2022-12-07T06:33:43;100306.03;;;2.79;100.00
44659;BME280;30378;50.186;8.644;2022-12-07T06:36:10;100312.53;;;2.78;100.00
44659;BME280;30378;50.186;8.644;2022-12-07T06:38:38;100313.09;;;2.80;100.00
44659;BME280;30378;50.186;8.644;2022-12-07T06:41:05;100313.50;;;2.72;100.00
44659;BME280;30378;50.186;8.644;2022-12-07T06:43:33;100318.59;;;2.68;100.00
44659;BME280;30378;50.186;8.644;2022-12-07T06:46:00;100318.53;;;2.63;100.00
44659;BME280;30378;50.186;8.644;2022-12-07T06:48:27;100317.50;;;2.52;100.00
44659;BME280;30378;50.186;8.644;2022-12-07T06:50:54;100320.13;;;2.47;100.00
44659;BME280;30378;50.186;8.644;2022-12-07T06:53:22;100328.75;;;2.44;100.00
44659;BME280;30378;50.186;8.644;2022-12-07T06:55:49;100322.75;;;2.42;100.00
44659;BME280;30378;50.186;8.644;2022-12-07T06:58:17;100330.91;;;2.30;100.00
44659;BME280;30378;50.186;8.644;2022-12-07T07:00:45;100332.94;;;2.23;100.00
44659;BME280;30378;50.186;8.644;2022-12-07T07:03:12;100333.78;;;2.24;100.00
44659;BME280;30378;50.186;8.644;2022-12-07T07:05:39;100346.28;;;2.13;100.00
44659;BME280;30378;50.186;8.644;2022-12-07T07:08:06;100339.47;;;2.10;100.00
44659;BME280;30378;50.186;8.644;2022-12-07T07:10:49;100346.31;;;2.01;100.00
44659;BME280;30378;50.186;8.644;2022-12-07T07:13:17;100346.91;;;2.03;100.00
44659;BME280;30378;50.186;8.644;2022-12-07T07:15:44;100350.31;;;2.10;100.00
44659;BME280;30378;50.186;8.644;2022-12-07T07:18:11;100345.47;;;2.12;100.00
44659;BME280;30378;50.186;8.644;2022-12-07T07:20:38;100361.28;;;2.15;100.00
44659;BME280;30378;50.186;8.644;2022-12-07T07:23:06;100372.47;;;2.07;100.00
44659;BME280;30378;50.186;8.644;2022-12-07T07:25:33;100386.16;;;2.01;100.00
44659;BME280;30378;50.186;8.644;2022-12-07T07:28:00;100379.94;;;1.88;100.00
44659;BME280;30378;50.186;8.644;2022-12-07T07:30:27;100382.25;;;2.08;100.00
44659;BME280;30378;50.186;8.644;2022-12-07T07:32:59;100374.94;;;2.09;100.00
44659;BME280;30378;50.186;8.644;2022-12-07T07:35:27;100387.75;;;2.37;100.00
44659;BME280;30378;50.186;8.644;2022-12-07T07:37:54;100383.09;;;2.78;100.00
44659;BME280;30378;50.186;8.644;2022-12-07T07:40:22;100377.06;;;2.76;100.00
44659;BME280;30378;50.186;8.644;2022-12-07T07:42:50;100385.91;;;2.83;100.00
44659;BME280;30378;50.186;8.644;2022-12-07T07:45:19;100385.44;;;2.74;100.00
44659;BME280;30378;50.186;8.644;2022-12-07T07:47:46;100393.47;;;2.81;100.00
44659;BME280;30378;50.186;8.644;2022-12-07T07:50:14;100389.88;;;2.92;100.00
44659;BME280;30378;50.186;8.644;2022-12-07T07:52:41;100388.16;;;3.03;100.00
44659;BME280;30378;50.186;8.644;2022-12-07T07:55:08;100387.50;;;3.13;100.00
44659;BME280;30378;50.186;8.644;2022-12-07T07:57:36;100384.56;;;3.14;100.00
44659;BME280;30378;50.186;8.644;2022-12-07T08:00:13;100384.91;;;3.18;100.00
44659;BME280;30378;50.186;8.644;2022-12-07T08:02:41;100383.22;;;3.17;100.00
44659;BME280;30378;50.186;8.644;2022-12-07T08:05:13;100383.06;;;3.07;100.00
44659;BME280;30378;50.186;8.644;2022-12-07T08:07:40;100385.78;;;3.07;100.00
44659;BME280;30378;50.186;8.644;2022-12-07T08:10:10;100390.97;;;3.08;100.00
44659;BME280;30378;50.186;8.644;2022-12-07T08:12:39;100383.22;;;3.17;100.00
44659;BME280;30378;50.186;8.644;2022-12-07T08:15:28;100388.16;;;3.03;100.00
44659;BME280;30378;50.186;8.644;2022-12-07T08:17:55;100386.53;;;3.36;100.00
44659;BME280;30378;50.186;8.644;2022-12-07T08:20:22;100378.19;;;3.76;100.00
44659;BME280;30378;50.186;8.644;2022-12-07T08:22:49;100385.44;;;4.10;100.00
44659;BME280;30378;50.186;8.644;2022-12-07T08:25:16;100378.94;;;4.11;100.00
44659;BME280;30378;50.186;8.644;2022-12-07T08:27:43;100370.78;;;4.33;100.00
44659;BME280;30378;50.186;8.644;2022-12-07T08:30:10;100371.66;;;4.39;100.00
44659;BME280;30378;50.186;8.644;2022-12-07T08:32:37;100348.13;;;4.27;100.00
44659;BME280;30378;50.186;8.644;2022-12-07T08:35:05;100332.00;;;4.21;100.00
44659;BME280;30378;50.186;8.644;2022-12-07T08:37:32;100338.88;;;4.28;100.00
44659;BME280;30378;50.186;8.644;2022-12-07T08:40:01;100333.72;;;4.27;100.00
44659;BME280;30378;50.186;8.644;2022-12-07T08:42:28;100336.53;;;4.91;100.00
44659;BME280;30378;50.186;8.644;2022-12-07T08:45:11;100336.09;;;5.80;100.00
44659;BME280;30378;50.186;8.644;2022-12-07T08:47:46;100324.72;;;8.49;100.00
44659;BME280;30378;50.186;8.644;2022-12-07T08:50:15;100317.28;;;7.90;100.00
44659;BME280;30378;50.186;8.644;2022-12-07T08:52:43;100315.19;;;7.41;100.00
44659;BME280;30378;50.186;8.644;2022-12-07T08:55:11;100320.16;;;9.96;100.00
44659;BME280;30378;50.186;8.644;2022-12-07T08:57:39;100318.25;;;11.48;100.00
44659;BME280;30378;50.186;8.644;2022-12-07T09:00:07;100314.66;;;12.36;100.00
44659;BME280;30378;50.186;8.644;2022-12-07T09:02:34;100312.59;;;13.68;100.00
44659;BME280;30378;50.186;8.644;2022-12-07T09:05:01;100309.28;;;15.16;100.00
44659;BME280;30378;50.186;8.644;2022-12-07T09:07:28;100307.84;;;14.84;100.00
44659;BME280;30378;50.186;8.644;2022-12-07T09:09:57;100310.44;;;15.15;100.00
44659;BME280;30378;50.186;8.644;2022-12-07T09:12:24;100313.16;;;16.27;100.00
44659;BME280;30378;50.186;8.644;2022-12-07T09:14:50;100315.50;;;16.97;100.00
44659;BME280;30378;50.186;8.644;2022-12-07T09:17:17;100300.28;;;16.31;100.00
44659;BME280;30378;50.186;8.644;2022-12-07T09:19:44;100312.50;;;16.30;100.00
44659;BME280;30378;50.186;8.644;2022-12-07T09:22:11;100318.28;;;15.86;100.00
44659;BME280;30378;50.186;8.644;2022-12-07T09:24:38;100324.06;;;16.62;100.00
44659;BME280;30378;50.186;8.644;2022-12-07T09:27:05;100329.13;;;14.57;100.00
44659;BME280;30378;50.186;8.644;2022-12-07T09:29:32;100333.88;;;15.26;100.00
44659;BME280;30378;50.186;8.644;2022-12-07T09:31:59;100335.50;;;12.65;100.00
44659;BME280;30378;50.186;8.644;2022-12-07T09:34:26;100330.31;;;11.20;100.00
44659;BME280;30378;50.186;8.644;2022-12-07T09:36:53;100333.19;;;10.09;100.00
44659;BME280;30378;50.186;8.644;2022-12-07T09:39:20;100338.06;;;9.64;100.00
44659;BME280;30378;50.186;8.644;2022-12-07T09:41:47;100337.91;;;9.21;100.00
44659;BME280;30378;50.186;8.644;2022-12-07T09:44:14;100322.50;;;9.84;100.00
44659;BME280;30378;50.186;8.644;2022-12-07T09:46:45;100323.13;;;13.35;100.00
44659;BME280;30378;50.186;8.644;2022-12-07T09:49:16;100324.03;;;13.53;100.00
44659;BME280;30378;50.186;8.644;2022-12-07T09:51:44;100321.31;;;13.62;100.00
44659;BME280;30378;50.186;8.644;2022-12-07T09:54:14;100326.78;;;13.08;100.00
44659;BME280;30378;50.186;8.644;2022-12-07T09:56:42;100323.72;;;10.83;100.00
44659;BME280;30378;50.186;8.644;2022-12-07T09:59:18;100322.84;;;10.25;100.00
44659;BME280;30378;50.186;8.644;2022-12-07T10:01:49;100327.56;;;9.71;100.00
44659;BME280;30378;50.186;8.644;2022-12-07T10:04:20;100315.66;;;12.40;100.00
44659;BME280;30378;50.186;8.644;2022-12-07T10:06:48;100311.53;;;10.89;100.00
44659;BME280;30378;50.186;8.644;2022-12-07T10:09:20;100311.66;;;9.73;100.00
44659;BME280;30378;50.186;8.644;2022-12-07T10:12:05;100318.81;;;8.71;100.00
44659;BME280;30378;50.186;8.644;2022-12-07T10:14:36;100320.97;;;8.74;100.00
44659;BME280;30378;50.186;8.644;2022-12-07T10:17:30;100313.47;;;8.41;100.00
44659;BME280;30378;50.186;8.644;2022-12-07T10:20:23;100306.66;;;7.68;100.00
44659;BME280;30378;50.186;8.644;2022-12-07T10:22:55;100307.00;;;7.25;100.00
44659;BME280;30378;50.186;8.644;2022-12-07T10:25:28;100300.72;;;7.25;100.00
44659;BME280;30378;50.186;8.644;2022-12-07T10:28:21;100295.25;;;6.94;100.00
44659;BME280;30378;50.186;8.644;2022-12-07T10:30:55;100290.63;;;7.10;100.00
44659;BME280;30378;50.186;8.644;2022-12-07T10:36:18;100293.09;;;8.12;100.00
44659;BME280;30378;50.186;8.644;2022-12-07T10:39:13;100299.00;;;8.35;100.00
44659;BME280;30378;50.186;8.644;2022-12-07T10:41:57;100291.63;;;7.70;100.00
44659;BME280;30378;50.186;8.644;2022-12-07T10:44:29;100287.19;;;7.85;100.00
44659;BME280;30378;50.186;8.644;2022-12-07T11:15:01;100269.56;;;7.31;100.00
44659;BME280;30378;50.186;8.644;2022-12-07T11:22:54;100255.47;;;7.79;100.00
44659;BME280;30378;50.186;8.644;2022-12-07T11:25:32;100261.94;;;9.51;100.00
44659;BME280;30378;50.186;8.644;2022-12-07T11:36:47;100243.78;;;7.58;100.00
44659;BME280;30378;50.186;8.644;2022-12-07T11:41:56;100233.69;;;7.53;100.00
44659;BME280;30378;50.186;8.644;2022-12-07T11:47:08;100228.78;;;8.60;100.00
44659;BME280;30378;50.186;8.644;2022-12-07T11:52:48;100219.94;;;8.68;100.00
44659;BME280;30378;50.186;8.644;2022-12-07T11:58:22;100214.66;;;8.42;100.00
44659;BME280;30378;50.186;8.644;2022-12-07T12:00:58;100208.94;;;7.84;100.00
44659;BME280;30378;50.186;8.644;2022-12-07T12:03:34;100216.78;;;7.30;100.00
44659;BME280;30378;50.186;8.644;2022-12-07T12:06:04;100205.84;;;7.35;100.00
44659;BME280;30378;50.186;8.644;2022-12-07T12:08:36;100203.16;;;8.45;100.00
44659;BME280;30378;50.186;8.644;2022-12-07T12:12:06;100199.59;;;9.08;100.00
44659;BME280;30378;50.186;8.644;2022-12-07T12:21:17;100194.19;;;8.69;100.00
44659;BME280;30378;50.186;8.644;2022-12-07T12:23:51;100195.91;;;8.15;100.00
44659;BME280;30378;50.186;8.644;2022-12-07T12:26:24;100187.69;;;7.60;100.00
44659;BME280;30378;50.186;8.644;2022-12-07T12:33:53;100193.47;;;7.53;100.00
44659;BME280;30378;50.186;8.644;2022-12-07T12:39:12;100187.28;;;7.22;100.00
44659;BME280;30378;50.186;8.644;2022-12-07T12:46:55;100195.53;;;6.25;100.00
44659;BME280;30378;50.186;8.644;2022-12-07T12:51:52;100194.31;;;5.80;100.00
44659;BME280;30378;50.186;8.644;2022-12-07T12:54:22;100195.13;;;5.75;100.00
44659;BME280;30378;50.186;8.644;2022-12-07T12:59:34;100187.78;;;5.81;100.00
44659;BME280;30378;50.186;8.644;2022-12-07T13:02:33;100186.69;;;5.82;100.00
44659;BME280;30378;50.186;8.644;2022-12-07T13:10:35;100172.09;;;6.44;100.00
44659;BME280;30378;50.186;8.644;2022-12-07T13:23:36;100168.53;;;6.69;100.00
44659;BME280;30378;50.186;8.644;2022-12-07T13:28:43;100177.25;;;6.61;100.00
44659;BME280;30378;50.186;8.644;2022-12-07T13:34:00;100166.59;;;6.75;100.00
44659;BME280;30378;50.186;8.644;2022-12-07T13:36:37;100166.63;;;6.80;100.00
44659;BME280;30378;50.186;8.644;2022-12-07T13:41:42;100169.06;;;6.35;100.00
44659;BME280;30378;50.186;8.644;2022-12-07T13:44:12;100159.50;;;6.28;100.00
44659;BME280;30378;50.186;8.644;2022-12-07T13:46:55;100168.22;;;5.99;100.00
44659;BME280;30378;50.186;8.644;2022-12-07T13:49:29;100167.84;;;5.80;100.00
44659;BME280;30378;50.186;8.644;2022-12-07T13:52:24;100160.13;;;5.56;100.00
44659;BME280;30378;50.186;8.644;2022-12-07T13:55:11;100162.28;;;5.44;100.00
44659;BME280;30378;50.186;8.644;2022-12-07T13:57:41;100167.22;;;5.52;100.00
44659;BME280;30378;50.186;8.644;2022-12-07T14:00:23;100169.66;;;5.44;100.00
44659;BME280;30378;50.186;8.644;2022-12-07T14:05:31;100169.38;;;4.97;100.00
44659;BME280;30378;50.186;8.644;2022-12-07T14:10:42;100163.50;;;5.16;100.00
44659;BME280;30378;50.186;8.644;2022-12-07T14:13:33;100170.38;;;5.29;100.00
44659;BME280;30378;50.186;8.644;2022-12-07T14:16:03;100160.03;;;5.26;100.00
44659;BME280;30378;50.186;8.644;2022-12-07T14:18:37;100163.88;;;5.35;100.00
44659;BME280;30378;50.186;8.644;2022-12-07T14:23:38;100156.25;;;5.37;100.00
44659;BME280;30378;50.186;8.644;2022-12-07T14:26:14;100155.66;;;5.25;100.00
44659;BME280;30378;50.186;8.644;2022-12-07T14:28:43;100159.13;;;5.10;100.00
44659;BME280;30378;50.186;8.644;2022-12-07T14:31:13;100153.44;;;5.16;100.00
44659;BME280;30378;50.186;8.644;2022-12-07T14:33:44;100157.22;;;5.10;100.00
44659;BME280;30378;50.186;8.644;2022-12-07T14:36:12;100158.31;;;5.14;100.00
44659;BME280;30378;50.186;8.644;2022-12-07T14:38:40;100155.91;;;5.23;100.00
44659;BME280;30378;50.186;8.644;2022-12-07T14:41:14;100157.47;;;5.04;100.00
44659;BME280;30378;50.186;8.644;2022-12-07T14:44:00;100154.66;;;4.93;100.00
44659;BME280;30378;50.186;8.644;2022-12-07T14:46:48;100152.44;;;4.85;100.00
44659;BME280;30378;50.186;8.644;2022-12-07T14:49:16;100152.13;;;4.82;100.00
44659;BME280;30378;50.186;8.644;2022-12-07T14:51:58;100155.53;;;4.62;100.00
44659;BME280;30378;50.186;8.644;2022-12-07T14:54:45;100145.78;;;4.33;100.00
44659;BME280;30378;50.186;8.644;2022-12-07T14:57:12;100155.66;;;4.12;100.00
44659;BME280;30378;50.186;8.644;2022-12-07T14:59:40;100153.38;;;3.99;100.00
44659;BME280;30378;50.186;8.644;2022-12-07T15:02:12;100153.47;;;3.82;100.00
44659;BME280;30378;50.186;8.644;2022-12-07T15:04:39;100147.72;;;3.78;100.00
44659;BME280;30378;50.186;8.644;2022-12-07T15:07:16;100148.09;;;3.65;100.00
44659;BME280;30378;50.186;8.644;2022-12-07T15:09:45;100152.88;;;3.53;100.00
44659;BME280;30378;50.186;8.644;2022-12-07T15:12:12;100153.84;;;3.42;100.00
44659;BME280;30378;50.186;8.644;2022-12-07T15:14:39;100139.34;;;3.58;100.00
44659;BME280;30378;50.186;8.644;2022-12-07T15:17:10;100139.47;;;3.68;100.00
44659;BME280;30378;50.186;8.644;2022-12-07T15:19:42;100144.66;;;3.70;100.00
44659;BME280;30378;50.186;8.644;2022-12-07T15:22:09;100148.19;;;3.70;100.00
44659;BME280;30378;50.186;8.644;2022-12-07T15:24:37;100142.91;;;3.86;100.00
44659;BME280;30378;50.186;8.644;2022-12-07T15:27:04;100147.25;;;3.87;100.00
44659;BME280;30378;50.186;8.644;2022-12-07T15:29:31;100160.69;;;3.98;100.00
44659;BME280;30378;50.186;8.644;2022-12-07T15:31:58;100156.13;;;4.04;100.00
44659;BME280;30378;50.186;8.644;2022-12-07T15:34:26;100142.19;;;3.95;100.00